Historyczne dane pomiarowe

Dodano dane terminowe – wersja testowa.

Dane z okresu 1951-2019

Wersja bazy: 1.34 [2019-03-16, lista zmian], aktualizacja planowana na 2019-04-15

Dane meteo z obszaru Polski uzyskane na podstawie danych udostępnionych przez Instytut Meteorologii i Gospodarki Wodnej – Państwowy Instytut Badawczy.

 

Wybierz Datę:    

       

TemperaturaWilgotnośćWiatrCiśnienieOpadyŚniegCzas trwania zjawisk
 Stacja t tx tn tng RH VA  wxwx mslp ppp RRR   cm mm wxwxwxwxwxwxwx
1994-08-14 13.1 17.4 8.8- 70.3- 1.0 4.0---- 0.0------------
1994-08-13 14.6 19.1 10.7- 90.8- 8.0 4.7---- 4.6------------
1994-08-12 13.4 19.8 11.2- 95.0- 8.0 7.0---- 6.8------------
1994-08-11 18.9 23.1 15.1- 87.0- 6.3 1.7---- 9.6------------
1994-08-10 18.1 26.2 9.4- 77.0- 0.3 2.3---- 7.9------------
1994-08-09 17.4 19.8 14.9- 92.0- 8.0 3.0---- 9.6------------
1994-08-08 20.4 27.3 15.4- 77.8- 7.7 2.3---- 1.2------------
1994-08-07 20.4 27.8 15.9- 79.5- 5.3 4.7---- 2.6------------
1994-08-06 23.1 30.0 16.2- 60.5- 3.3 3.0---- 0.0------------
1994-08-05 21.2 28.4 15.1- 71.8- 0.0 1.0---- 0.0------------
1994-08-04 19.9 27.3 12.2- 77.8- 1.7 3.7---- 0.0------------
1994-08-03 22.2 28.4 15.1- 72.3- 4.3 2.0---- 1.6------------
1994-08-02 22.6 29.6 18.1- 65.5- 5.3 0.0---- 0.1------------
1994-08-01 24.4 33.0 16.6- 66.5- 3.3 2.3---- 0.0------------
1994-07-31 24.8 31.8 18.4- 54.5- 0.0 1.7---- 0.0------------
1994-07-30 24.4 32.1 17.1- 56.5- 0.0 0.0---- 0.0------------
1994-07-29 24.4 30.4 16.1- 57.0- 0.0 0.7---- 0.0------------
1994-07-28 23.0 30.8 15.3- 60.5- 0.0 1.7---- 0.0------------
1994-07-27 22.4 30.1 15.1- 62.8- 1.7 2.3---- 0.0------------
1994-07-26 23.0 30.4 14.3- 57.8- 1.7 0.0---- 0.0------------
1994-07-25 22.5 29.4 15.1- 57.3- 1.3 0.0---- 0.0------------
1994-07-24 21.5 28.4 14.0- 61.3- 1.3 0.0---- 0.0------------
1994-07-23 20.3 27.4 12.2- 63.3- 0.7 0.7---- 0.0------------
1994-07-22 19.8 27.0 13.1- 62.5- 0.0 1.7---- 0.0------------
1994-07-21 18.2 26.2 9.4- 66.8- 0.0 3.0---- 0.0------------
1994-07-20 16.1 20.3 10.7- 76.3- 3.7 2.7---- 0.0------------
1994-07-19 18.2 22.4 14.1- 85.3- 6.7 0.0---- 0.4------------
1994-07-18 18.5 23.3 14.1- 88.3- 7.3 2.0---- 0.0------------
1994-07-17 17.8 25.6 10.4- 87.0- 5.0 2.3---- 8.8------------
1994-07-16 18.6 25.5 12.4- 86.3- 5.0 2.0---- 7.8------------
1994-07-15 19.0 25.4 10.4- 77.8- 2.0 0.7---- 0.0------------
1994-07-14 19.1 25.6 13.1- 71.8- 4.3 6.3---- 0.0------------
1994-07-13 19.8 25.4 13.3- 72.0- 2.0 4.0---- 0.0------------
1994-07-12 16.7 20.4 10.2- 82.5- 0.3 2.3---- 0.0------------
1994-07-11 15.1 19.4 8.2- 87.3- 5.3 2.3---- 0.4------------
1994-07-10 12.6 16.0 10.2- 91.0- 6.0 0.0---- 5.9------------
1994-07-09 13.7 16.4 10.4- 87.8- 8.0 4.0---- 24.8------------
1994-07-08 13.5 17.0 9.4- 80.0- 5.0 5.7---- 0.6------------
1994-07-07 17.6 23.8 13.3- 79.5- 6.3 0.0---- 3.7------------
1994-07-06 19.7 24.7 11.4- 74.5- 0.3 2.3---- 0.0------------
1994-07-05 20.9 25.2 14.9- 68.3- 6.7 0.0---- 0.0------------
1994-07-04 21.8 29.3 11.8- 62.5- 0.0 1.0---- 0.0------------
1994-07-03 21.4 28.4 12.2- 62.5- 0.0 2.3---- 0.0------------
1994-07-02 19.0 24.8 8.3- 66.3- 0.0 1.0---- 0.0------------
1994-07-01 17.5 21.4 14.6- 70.0- 3.3 1.7---- 0.0------------
1994-06-30 19.0 23.6 15.4- 88.5- 5.3 1.3---- 0.0------------
1994-06-29 22.4 29.8 15.1- 76.8- 3.0 0.7---- 1.6------------
1994-06-28 22.7 30.7 16.9- 84.3- 4.7 2.7---- 0.0------------
1994-06-27 24.3 30.1 19.1- 73.0- 2.7 2.7---- 0.0------------
1994-06-26 19.5 26.0 10.4- 64.0- 0.0 7.0---- 0.0------------
1994-06-25 15.4 23.0 4.4- 59.3- 0.0 1.0---- 0.0------------
1994-06-24 14.6 20.7 5.4- 59.5- 0.0 2.3---- 0.0------------
1994-06-23 15.3 21.4 12.2- 73.0- 5.3 5.7---- 0.0------------
1994-06-22 16.8 24.0 9.5- 71.0- 4.0 1.7---- 0.0------------
1994-06-21 14.9 20.0 10.2- 68.3- 0.0 3.0---- 0.0------------
1994-06-20 17.8 23.6 10.4- 73.0- 4.0 3.7---- 0.0------------
1994-06-19 16.6 24.0 8.1- 71.0- 4.3 5.3---- 0.3------------
1994-06-18 9.2 16.3 0.7- 88.5- 5.3 3.7---- 4.6------------
1994-06-17 8.1 12.4 5.1- 94.3- 8.0 3.0---- 5.4------------
1994-06-16 11.7 15.3 5.0- 76.3- 5.7 5.0---- 4.3------------
332.1 ms

 

Źródłem pochodzenia danych jest Instytut Meteorologii i Gospodarki Wodnej – Państwowy Instytut Badawczy. Dane Instytutu Meteorologii i Gospodarki Wodnej – Państwowego Instytutu Badawczego zostały przetworzone.

Dane źródłowe można odnaleźć na stronie https://dane.imgw.pl